ADDS METAR Data INFO
IDs: Format: Raw Decoded Include TAF

Data at: 2300 UTC 16 Jan 2018

KLOZ 162253Z AUTO 29008KT SCT011 BKN045 OVC060 M11/M14 A3048 RMK AO2 SNE27 SLP338 P0000 T11061139 $
KLOZ 162246Z AUTO 30006KT FEW005 SCT011 OVC060 M11/M13 A3048 RMK AO2 SNE27 P0000 T11061128 $
KLOZ 162238Z AUTO 31005KT SCT015 OVC060 M10/M13 A3047 RMK AO2 SNE27 P0000 T11001133 $
KLOZ 162153Z AUTO 29006KT SN OVC018 M10/M12 A3046 RMK AO2 SLP331 P0001 T11001122
KLOZ 162053Z AUTO 28007KT -SN OVC021 M10/M13 A3046 RMK AO2 SLP330 P0001 60002 T11001133 53008
KLOZ 162034Z AUTO 29007KT -SN FEW011 OVC018 M10/M12 A3045 RMK AO2 P0001 T11001122
KLOZ 162026Z AUTO 28007KT SN OVC014 M09/M12 A3045 RMK AO2 P0001 T10941122
KLOZ 161953Z AUTO 32005KT -SN SCT017 BKN027 OVC050 M09/M13 A3044 RMK AO2 SNB24 SLP324 P0000 T10941128
KLOZ 161942Z AUTO 32005KT -SN BKN015 OVC050 M09/M13 A3044 RMK AO2 SNB24 P0000 T10941128
KLOZ 161922Z AUTO 33007KT FEW013 FEW019 OVC050 M09/M12 A3044 RMK AO2 T10891122
KLOZ 161913Z AUTO 34006KT SCT014 BKN019 OVC050 M09/M12 A3043 RMK AO2 T10891122
KLOZ 161853Z AUTO 35006KT OVC014 M09/M12 A3043 RMK AO2 SNE52 SLP320 P0001 T10891122
KLOZ 161753Z AUTO VRB06KT SN OVC015 M09/M12 A3045 RMK AO2 SNB28 SLP325 P0001 60001 T10891117 11067 21089 58008 $
KLOZ 161653Z AUTO 32007KT SCT016 BKN021 OVC036 M08/M12 A3047 RMK AO2 SLP332 T10831117 PWINO FZRANO $
KLOZ 161621Z AUTO 34006KT FEW012 BKN018 OVC027 M08/M11 A3047 RMK AO2 T10781106 PWINO FZRANO $
KLOZ 161553Z AUTO 35006KT OVC014 M08/M11 A3047 RMK AO2 SLP333 T10781106 PWINO FZRANO $
KLOZ 161520Z AUTO 34006KT OVC013 M08/M11 A3047 RMK AO2 T10781106 PWINO FZRANO $
KLOZ 161453Z AUTO 36004KT OVC015 M08/M11 A3047 RMK AO2 SLP331 T10831106 51016 PWINO FZRANO $
KLOZ 161353Z AUTO 32005KT OVC026 M08/M11 A3046 RMK AO2 SLP328 T10831111 PWINO FZRANO $
KLOZ 161253Z AUTO 33008KT OVC021 M07/M10 A3044 RMK AO2 SLP321 T10721100 PWINO FZRANO $
KLOZ 161153Z AUTO 31009KT OVC017 M07/M09 A3042 RMK AO2 SLP314 T10671094 11006 21067 53013 PWINO FZRANO $
KLOZ 161144Z AUTO 31009KT SCT010 OVC017 M06/M09 A3043 RMK AO2 T10611094 PWINO FZRANO $
KLOZ 161117Z AUTO 33010KT BKN010 OVC016 M05/M08 A3041 RMK AO2 T10501078 PWINO FZRANO $
KLOZ 161053Z AUTO 32008KT OVC015 M04/M07 A3040 RMK AO2 SLP303 T10441072 PWINO FZRANO $
KLOZ 160953Z AUTO 34008KT BKN010 OVC015 M03/M06 A3038 RMK AO2 SLP296 T10331056 PWINO FZRANO $
KLOZ 160949Z AUTO 34010KT OVC014 M03/M06 A3038 RMK AO2 PWINO FZRANO $
KLOZ 160903Z AUTO 33005KT OVC016 M02/M06 A3037 RMK AO2 T10171056 PWINO FZRANO $
KLOZ 160853Z AUTO 35006KT OVC014 M02/M06 A3037 RMK AO2 SLP292 T10171056 53009 PWINO FZRANO $
KLOZ 160753Z AUTO 33007KT OVC010 M02/M04 A3036 RMK AO2 SLP291 T10171044 PWINO FZRANO $
KLOZ 160653Z AUTO 30006KT BKN013 OVC055 M01/M03 A3034 RMK AO2 SLP282 T10061033 PWINO FZRANO $
KLOZ 160553Z AUTO 27004KT OVC055 M01/M03 A3034 RMK AO2 SLP283 T10061033 10044 21011 50007 PWINO FZRANO $
KLOZ 160453Z AUTO 29004KT CLR M01/M04 A3034 RMK AO2 SLP284 T10061039 400561094 PWINO FZRANO $
KLOZ 160353Z AUTO 32008KT SCT060 01/M03 A3035 RMK AO2 SLP285 T00061028 PWINO FZRANO $
KLOZ 160253Z AUTO 19003KT BKN055 02/M03 A3032 RMK AO2 SLP276 T00221028 53004 PWINO FZRANO $
KLOZ 160153Z AUTO 28005KT SCT040 SCT048 OVC055 03/M02 A3031 RMK AO2 SLP273 T00281022 PWINO $
KLOZ 160053Z AUTO 24008KT OVC044 04/M03 A3031 RMK AO2 SLP272 T00441033 PWINO $
KLOZ 152353Z AUTO 24013G18KT OVC048 04/M05 A3031 RMK AO2 SLP272 T00441050 10056 20022 53010 PWINO $
KLOZ 152253Z AUTO 23004KT BKN055 OVC070 04/M06 A3029 RMK AO2 SLP268 T00441061 PWINO $
KLOZ 152153Z AUTO 20006KT BKN060 OVC080 05/M06 A3028 RMK AO2 SLP265 T00501061 PWINO $
KLOZ 152053Z AUTO 19010KT FEW060 BKN090 05/M07 A3027 RMK AO2 SLP262 T00501067 55007 PWINO $
KLOZ 151953Z AUTO 20014KT CLR 05/M07 A3027 RMK AO2 SLP261 T00501067 PWINO $
KLOZ 151853Z AUTO 23012G22KT CLR 04/M07 A3027 RMK AO2 SLP262 T00441072 PWINO $
KLOZ 151753Z AUTO 18011KT CLR 02/M07 A3029 RMK AO2 SLP271 T00221067 10022 21044 58019 PWINO FZRANO $
KLOZ 151653Z AUTO 18011G22KT SCT050 01/M08 A3033 RMK AO2 SLP284 T00111078 PWINO FZRANO $
KLOZ 151553Z AUTO 18008KT FEW027 00/M09 A3035 RMK AO2 SLP293 T00001089 PWINO FZRANO $
KLOZ 151453Z AUTO 17007KT BKN039 M02/M09 A3035 RMK AO2 SLP293 T10221094 58006 PWINO FZRANO $
KLOZ 151353Z AUTO 17004KT OVC035 M03/M09 A3037 RMK AO2 SLP300 T10331094 PWINO FZRANO $
KLOZ 151253Z AUTO 17005KT OVC038 M04/M09 A3035 RMK AO2 SLP294 T10391094 PWINO FZRANO $
KLOZ 151153Z AUTO 18005KT OVC044 M04/M09 A3037 RMK AO2 SLP299 T10441089 11044 21083 55000 PWINO FZRANO $